sensor_id;sensor_type;location;lat;lon;timestamp;temperature;humidity
10304;DHT22;5197;48.152;8.590;2023-02-01T00:00:29;2.70;23.80
10304;DHT22;5197;48.152;8.590;2023-02-01T00:02:56;2.70;23.40
10304;DHT22;5197;48.152;8.590;2023-02-01T00:05:23;2.70;23.70
10304;DHT22;5197;48.152;8.590;2023-02-01T00:07:50;2.70;23.90
10304;DHT22;5197;48.152;8.590;2023-02-01T00:10:17;2.70;24.00
10304;DHT22;5197;48.152;8.590;2023-02-01T00:12:44;2.70;24.10
10304;DHT22;5197;48.152;8.590;2023-02-01T00:15:11;2.70;24.20
10304;DHT22;5197;48.152;8.590;2023-02-01T00:17:38;2.70;24.20
10304;DHT22;5197;48.152;8.590;2023-02-01T00:20:05;2.70;24.60
10304;DHT22;5197;48.152;8.590;2023-02-01T00:22:32;2.70;24.40
10304;DHT22;5197;48.152;8.590;2023-02-01T00:24:59;2.70;24.50
10304;DHT22;5197;48.152;8.590;2023-02-01T00:27:26;2.70;24.80
10304;DHT22;5197;48.152;8.590;2023-02-01T00:29:54;2.70;24.80
10304;DHT22;5197;48.152;8.590;2023-02-01T00:32:22;2.70;25.10
10304;DHT22;5197;48.152;8.590;2023-02-01T00:34:48;2.70;25.00
10304;DHT22;5197;48.152;8.590;2023-02-01T00:37:15;2.70;25.20
10304;DHT22;5197;48.152;8.590;2023-02-01T00:39:42;2.70;25.40
10304;DHT22;5197;48.152;8.590;2023-02-01T00:42:09;2.70;25.70
10304;DHT22;5197;48.152;8.590;2023-02-01T00:44:36;2.70;25.40
10304;DHT22;5197;48.152;8.590;2023-02-01T00:47:03;2.70;25.50
10304;DHT22;5197;48.152;8.590;2023-02-01T00:49:30;2.80;25.50
10304;DHT22;5197;48.152;8.590;2023-02-01T00:51:57;2.70;25.60
10304;DHT22;5197;48.152;8.590;2023-02-01T00:54:23;2.70;25.80
10304;DHT22;5197;48.152;8.590;2023-02-01T00:56:50;2.80;25.80
10304;DHT22;5197;48.152;8.590;2023-02-01T00:59:17;2.80;26.00
10304;DHT22;5197;48.152;8.590;2023-02-01T01:01:44;2.60;26.60
10304;DHT22;5197;48.152;8.590;2023-02-01T01:04:11;2.80;26.30
10304;DHT22;5197;48.152;8.590;2023-02-01T01:06:38;2.80;26.40
10304;DHT22;5197;48.152;8.590;2023-02-01T01:09:06;2.80;26.60
10304;DHT22;5197;48.152;8.590;2023-02-01T01:11:36;2.80;26.60
10304;DHT22;5197;48.152;8.590;2023-02-01T01:14:04;2.80;26.70
10304;DHT22;5197;48.152;8.590;2023-02-01T01:16:32;2.80;26.70
10304;DHT22;5197;48.152;8.590;2023-02-01T01:19:00;2.80;26.90
10304;DHT22;5197;48.152;8.590;2023-02-01T01:21:28;2.80;26.90
10304;DHT22;5197;48.152;8.590;2023-02-01T01:23:55;2.80;26.90
10304;DHT22;5197;48.152;8.590;2023-02-01T01:26:24;2.80;27.20
10304;DHT22;5197;48.152;8.590;2023-02-01T01:28:52;2.80;27.20
10304;DHT22;5197;48.152;8.590;2023-02-01T01:31:21;2.80;26.20
10304;DHT22;5197;48.152;8.590;2023-02-01T01:33:49;2.80;27.30
10304;DHT22;5197;48.152;8.590;2023-02-01T01:36:16;2.80;27.30
10304;DHT22;5197;48.152;8.590;2023-02-01T01:38:43;2.70;27.40
10304;DHT22;5197;48.152;8.590;2023-02-01T01:41:14;2.80;26.80
10304;DHT22;5197;48.152;8.590;2023-02-01T01:46:22;2.80;27.70
10304;DHT22;5197;48.152;8.590;2023-02-01T01:48:53;2.80;27.70
10304;DHT22;5197;48.152;8.590;2023-02-01T01:51:24;2.70;27.80
10304;DHT22;5197;48.152;8.590;2023-02-01T01:54:03;2.70;28.10
10304;DHT22;5197;48.152;8.590;2023-02-01T01:56:32;2.80;28.10
10304;DHT22;5197;48.152;8.590;2023-02-01T01:59:00;2.70;28.10
10304;DHT22;5197;48.152;8.590;2023-02-01T02:01:27;2.80;28.10
10304;DHT22;5197;48.152;8.590;2023-02-01T02:03:55;2.80;28.10
10304;DHT22;5197;48.152;8.590;2023-02-01T02:06:31;2.80;28.10
10304;DHT22;5197;48.152;8.590;2023-02-01T02:08:59;2.80;28.10
10304;DHT22;5197;48.152;8.590;2023-02-01T02:11:26;2.80;28.20
10304;DHT22;5197;48.152;8.590;2023-02-01T02:13:54;2.80;28.20
10304;DHT22;5197;48.152;8.590;2023-02-01T02:16:51;2.80;28.10
10304;DHT22;5197;48.152;8.590;2023-02-01T02:22:16;2.80;28.10
10304;DHT22;5197;48.152;8.590;2023-02-01T02:33:56;2.80;28.10
10304;DHT22;5197;48.152;8.590;2023-02-01T02:42:01;2.80;28.10
10304;DHT22;5197;48.152;8.590;2023-02-01T02:48:27;2.80;28.10
10304;DHT22;5197;48.152;8.590;2023-02-01T02:51:05;2.80;28.10
10304;DHT22;5197;48.152;8.590;2023-02-01T02:54:03;2.80;28.30
10304;DHT22;5197;48.152;8.590;2023-02-01T02:56:50;2.70;28.30
10304;DHT22;5197;48.152;8.590;2023-02-01T02:59:40;2.70;28.40
10304;DHT22;5197;48.152;8.590;2023-02-01T03:02:27;2.80;28.50
10304;DHT22;5197;48.152;8.590;2023-02-01T03:05:12;2.70;28.50
10304;DHT22;5197;48.152;8.590;2023-02-01T03:08:02;2.70;28.50
10304;DHT22;5197;48.152;8.590;2023-02-01T03:10:42;2.80;28.30
10304;DHT22;5197;48.152;8.590;2023-02-01T03:19:06;2.70;28.70
10304;DHT22;5197;48.152;8.590;2023-02-01T03:24:14;2.70;28.80
10304;DHT22;5197;48.152;8.590;2023-02-01T03:26:51;2.70;28.80
10304;DHT22;5197;48.152;8.590;2023-02-01T03:29:25;2.70;28.90
10304;DHT22;5197;48.152;8.590;2023-02-01T03:31:54;2.70;29.00
10304;DHT22;5197;48.152;8.590;2023-02-01T03:34:21;2.70;29.20
10304;DHT22;5197;48.152;8.590;2023-02-01T03:36:57;2.70;29.20
10304;DHT22;5197;48.152;8.590;2023-02-01T03:41:58;2.70;29.30
10304;DHT22;5197;48.152;8.590;2023-02-01T03:44:38;2.70;29.20
10304;DHT22;5197;48.152;8.590;2023-02-01T03:47:09;2.70;29.10
10304;DHT22;5197;48.152;8.590;2023-02-01T03:49:46;2.60;29.10
10304;DHT22;5197;48.152;8.590;2023-02-01T03:52:22;2.70;29.30
10304;DHT22;5197;48.152;8.590;2023-02-01T03:54:51;2.70;29.40
10304;DHT22;5197;48.152;8.590;2023-02-01T03:57:23;2.70;29.40
10304;DHT22;5197;48.152;8.590;2023-02-01T03:59:52;2.70;29.60
10304;DHT22;5197;48.152;8.590;2023-02-01T04:02:19;2.70;29.70
10304;DHT22;5197;48.152;8.590;2023-02-01T04:04:45;2.70;29.80
10304;DHT22;5197;48.152;8.590;2023-02-01T04:07:12;2.70;29.90
10304;DHT22;5197;48.152;8.590;2023-02-01T04:09:39;2.70;29.90
10304;DHT22;5197;48.152;8.590;2023-02-01T04:12:06;2.60;30.00
10304;DHT22;5197;48.152;8.590;2023-02-01T04:14:33;2.70;29.90
10304;DHT22;5197;48.152;8.590;2023-02-01T04:17:00;2.70;30.00
10304;DHT22;5197;48.152;8.590;2023-02-01T04:19:26;2.80;29.90
10304;DHT22;5197;48.152;8.590;2023-02-01T04:21:53;2.70;29.90
10304;DHT22;5197;48.152;8.590;2023-02-01T04:24:20;2.80;29.90
10304;DHT22;5197;48.152;8.590;2023-02-01T04:26:47;2.70;30.00
10304;DHT22;5197;48.152;8.590;2023-02-01T04:29:14;2.80;30.00
10304;DHT22;5197;48.152;8.590;2023-02-01T04:31:40;2.70;30.00
10304;DHT22;5197;48.152;8.590;2023-02-01T04:34:07;2.70;30.10
10304;DHT22;5197;48.152;8.590;2023-02-01T04:36:34;2.70;30.00
10304;DHT22;5197;48.152;8.590;2023-02-01T04:39:01;2.70;30.10
10304;DHT22;5197;48.152;8.590;2023-02-01T04:41:28;2.70;30.00
10304;DHT22;5197;48.152;8.590;2023-02-01T04:43:55;2.70;30.10
10304;DHT22;5197;48.152;8.590;2023-02-01T04:46:22;2.70;30.30
10304;DHT22;5197;48.152;8.590;2023-02-01T04:48:49;2.80;30.30
10304;DHT22;5197;48.152;8.590;2023-02-01T04:51:16;2.80;30.20
10304;DHT22;5197;48.152;8.590;2023-02-01T04:53:45;2.80;30.00
10304;DHT22;5197;48.152;8.590;2023-02-01T04:56:11;2.80;30.00
10304;DHT22;5197;48.152;8.590;2023-02-01T04:58:38;2.50;30.00
10304;DHT22;5197;48.152;8.590;2023-02-01T05:01:06;2.80;30.10
10304;DHT22;5197;48.152;8.590;2023-02-01T05:03:33;2.80;30.20
10304;DHT22;5197;48.152;8.590;2023-02-01T05:06:00;2.90;30.20
10304;DHT22;5197;48.152;8.590;2023-02-01T05:08:27;2.80;30.20
10304;DHT22;5197;48.152;8.590;2023-02-01T05:10:55;2.90;30.40
10304;DHT22;5197;48.152;8.590;2023-02-01T05:13:22;2.90;30.40
10304;DHT22;5197;48.152;8.590;2023-02-01T05:16:07;2.90;30.00
10304;DHT22;5197;48.152;8.590;2023-02-01T05:18:34;2.90;30.00
10304;DHT22;5197;48.152;8.590;2023-02-01T05:21:01;2.80;30.00
10304;DHT22;5197;48.152;8.590;2023-02-01T05:23:28;2.80;30.00
10304;DHT22;5197;48.152;8.590;2023-02-01T05:25:58;2.90;30.00
10304;DHT22;5197;48.152;8.590;2023-02-01T05:28:27;2.90;30.00
10304;DHT22;5197;48.152;8.590;2023-02-01T05:30:54;2.90;29.90
10304;DHT22;5197;48.152;8.590;2023-02-01T05:33:21;2.90;30.00
10304;DHT22;5197;48.152;8.590;2023-02-01T05:35:48;2.90;29.90
10304;DHT22;5197;48.152;8.590;2023-02-01T05:38:16;2.80;30.00
10304;DHT22;5197;48.152;8.590;2023-02-01T05:40:43;2.90;30.00
10304;DHT22;5197;48.152;8.590;2023-02-01T05:43:16;2.90;30.00
10304;DHT22;5197;48.152;8.590;2023-02-01T05:45:43;2.90;29.80
10304;DHT22;5197;48.152;8.590;2023-02-01T05:48:09;2.90;29.60
10304;DHT22;5197;48.152;8.590;2023-02-01T05:50:37;3.00;29.50
10304;DHT22;5197;48.152;8.590;2023-02-01T05:53:04;2.90;29.20
10304;DHT22;5197;48.152;8.590;2023-02-01T05:55:31;3.00;29.10
10304;DHT22;5197;48.152;8.590;2023-02-01T05:57:58;3.00;28.80
10304;DHT22;5197;48.152;8.590;2023-02-01T06:00:25;3.00;28.70
10304;DHT22;5197;48.152;8.590;2023-02-01T06:02:53;3.00;28.70
10304;DHT22;5197;48.152;8.590;2023-02-01T06:05:20;3.10;28.70
10304;DHT22;5197;48.152;8.590;2023-02-01T06:07:47;3.00;28.30
10304;DHT22;5197;48.152;8.590;2023-02-01T06:10:14;3.00;28.30
10304;DHT22;5197;48.152;8.590;2023-02-01T06:12:42;3.10;28.40
10304;DHT22;5197;48.152;8.590;2023-02-01T06:15:09;3.10;28.20
10304;DHT22;5197;48.152;8.590;2023-02-01T06:17:36;3.10;28.10
10304;DHT22;5197;48.152;8.590;2023-02-01T06:20:03;3.10;27.90
10304;DHT22;5197;48.152;8.590;2023-02-01T06:22:30;3.20;27.80
10304;DHT22;5197;48.152;8.590;2023-02-01T06:24:56;3.10;27.40
10304;DHT22;5197;48.152;8.590;2023-02-01T06:27:25;3.10;27.40
10304;DHT22;5197;48.152;8.590;2023-02-01T06:29:52;3.10;27.60
10304;DHT22;5197;48.152;8.590;2023-02-01T06:32:20;3.10;27.40
10304;DHT22;5197;48.152;8.590;2023-02-01T06:34:46;3.10;27.40
10304;DHT22;5197;48.152;8.590;2023-02-01T06:37:13;3.20;27.30
10304;DHT22;5197;48.152;8.590;2023-02-01T06:39:40;3.20;27.30
10304;DHT22;5197;48.152;8.590;2023-02-01T06:42:07;3.20;27.20
10304;DHT22;5197;48.152;8.590;2023-02-01T06:44:34;3.20;27.10
10304;DHT22;5197;48.152;8.590;2023-02-01T06:47:02;3.20;27.00
10304;DHT22;5197;48.152;8.590;2023-02-01T06:49:29;3.20;26.80
10304;DHT22;5197;48.152;8.590;2023-02-01T06:51:56;3.20;26.70
10304;DHT22;5197;48.152;8.590;2023-02-01T06:54:23;3.20;26.70
10304;DHT22;5197;48.152;8.590;2023-02-01T06:56:50;3.20;26.60
10304;DHT22;5197;48.152;8.590;2023-02-01T06:59:16;3.20;26.60
10304;DHT22;5197;48.152;8.590;2023-02-01T07:01:43;3.20;26.60
10304;DHT22;5197;48.152;8.590;2023-02-01T07:04:11;3.20;26.50
10304;DHT22;5197;48.152;8.590;2023-02-01T07:06:39;3.20;26.40
10304;DHT22;5197;48.152;8.590;2023-02-01T07:09:07;3.10;26.20
10304;DHT22;5197;48.152;8.590;2023-02-01T07:11:34;3.20;26.50
10304;DHT22;5197;48.152;8.590;2023-02-01T07:14:01;3.20;26.60
10304;DHT22;5197;48.152;8.590;2023-02-01T07:16:27;3.20;26.80
10304;DHT22;5197;48.152;8.590;2023-02-01T07:18:55;3.20;26.50
10304;DHT22;5197;48.152;8.590;2023-02-01T07:21:22;3.20;26.60
10304;DHT22;5197;48.152;8.590;2023-02-01T07:23:50;3.20;26.60
10304;DHT22;5197;48.152;8.590;2023-02-01T07:26:17;3.20;26.70
10304;DHT22;5197;48.152;8.590;2023-02-01T07:28:44;3.20;26.70
10304;DHT22;5197;48.152;8.590;2023-02-01T07:31:13;3.10;26.10
10304;DHT22;5197;48.152;8.590;2023-02-01T07:33:41;3.10;26.80
10304;DHT22;5197;48.152;8.590;2023-02-01T07:36:13;3.10;26.90
10304;DHT22;5197;48.152;8.590;2023-02-01T07:38:40;3.10;26.90
10304;DHT22;5197;48.152;8.590;2023-02-01T07:41:08;3.10;27.00
10304;DHT22;5197;48.152;8.590;2023-02-01T07:43:35;3.10;27.00
10304;DHT22;5197;48.152;8.590;2023-02-01T07:46:03;3.10;27.00
10304;DHT22;5197;48.152;8.590;2023-02-01T07:48:31;3.20;27.10
10304;DHT22;5197;48.152;8.590;2023-02-01T07:53:25;3.10;27.10
10304;DHT22;5197;48.152;8.590;2023-02-01T07:55:52;4.40;27.90
10304;DHT22;5197;48.152;8.590;2023-02-01T07:58:19;3.10;27.40
10304;DHT22;5197;48.152;8.590;2023-02-01T08:00:46;3.10;27.30
10304;DHT22;5197;48.152;8.590;2023-02-01T08:03:31;3.10;27.20
10304;DHT22;5197;48.152;8.590;2023-02-01T08:05:58;3.20;27.40
10304;DHT22;5197;48.152;8.590;2023-02-01T08:08:25;3.20;27.60
10304;DHT22;5197;48.152;8.590;2023-02-01T08:10:57;3.10;27.50
10304;DHT22;5197;48.152;8.590;2023-02-01T08:13:24;3.20;27.50
10304;DHT22;5197;48.152;8.590;2023-02-01T08:15:51;3.10;27.70
10304;DHT22;5197;48.152;8.590;2023-02-01T08:18:18;3.10;27.50
10304;DHT22;5197;48.152;8.590;2023-02-01T08:20:45;3.20;27.70
10304;DHT22;5197;48.152;8.590;2023-02-01T08:23:12;3.10;27.50
10304;DHT22;5197;48.152;8.590;2023-02-01T08:25:39;3.20;27.70
10304;DHT22;5197;48.152;8.590;2023-02-01T08:28:07;3.20;27.70
10304;DHT22;5197;48.152;8.590;2023-02-01T08:30:34;3.20;27.40
10304;DHT22;5197;48.152;8.590;2023-02-01T08:33:02;3.20;26.90
10304;DHT22;5197;48.152;8.590;2023-02-01T08:35:29;3.20;27.40
10304;DHT22;5197;48.152;8.590;2023-02-01T08:38:09;3.20;27.90
10304;DHT22;5197;48.152;8.590;2023-02-01T08:40:35;3.10;28.40
10304;DHT22;5197;48.152;8.590;2023-02-01T08:43:02;3.10;28.40
10304;DHT22;5197;48.152;8.590;2023-02-01T08:45:29;3.20;28.40
10304;DHT22;5197;48.152;8.590;2023-02-01T08:47:57;3.10;28.20
10304;DHT22;5197;48.152;8.590;2023-02-01T08:50:24;3.30;27.60
10304;DHT22;5197;48.152;8.590;2023-02-01T08:52:52;3.30;27.40
10304;DHT22;5197;48.152;8.590;2023-02-01T08:55:20;3.30;27.30
10304;DHT22;5197;48.152;8.590;2023-02-01T08:57:47;3.40;27.30
10304;DHT22;5197;48.152;8.590;2023-02-01T09:00:16;3.40;27.20
10304;DHT22;5197;48.152;8.590;2023-02-01T09:02:44;3.50;27.10
10304;DHT22;5197;48.152;8.590;2023-02-01T09:05:11;3.50;26.90
10304;DHT22;5197;48.152;8.590;2023-02-01T09:07:38;3.50;26.40
10304;DHT22;5197;48.152;8.590;2023-02-01T09:10:06;3.50;26.40
10304;DHT22;5197;48.152;8.590;2023-02-01T09:12:33;3.70;26.10
10304;DHT22;5197;48.152;8.590;2023-02-01T09:15:01;3.80;24.80
10304;DHT22;5197;48.152;8.590;2023-02-01T09:17:29;3.80;24.60
10304;DHT22;5197;48.152;8.590;2023-02-01T09:19:56;3.90;24.30
10304;DHT22;5197;48.152;8.590;2023-02-01T09:22:23;3.90;23.90
10304;DHT22;5197;48.152;8.590;2023-02-01T09:24:51;3.90;23.10
10304;DHT22;5197;48.152;8.590;2023-02-01T09:27:20;3.90;22.50
10304;DHT22;5197;48.152;8.590;2023-02-01T09:29:47;3.90;22.30
10304;DHT22;5197;48.152;8.590;2023-02-01T09:32:20;3.90;22.30
10304;DHT22;5197;48.152;8.590;2023-02-01T09:34:52;3.90;20.70
10304;DHT22;5197;48.152;8.590;2023-02-01T09:37:19;3.80;20.00
10304;DHT22;5197;48.152;8.590;2023-02-01T09:39:46;3.80;20.00
10304;DHT22;5197;48.152;8.590;2023-02-01T09:42:19;3.70;17.70
10304;DHT22;5197;48.152;8.590;2023-02-01T09:45:17;3.70;18.30
10304;DHT22;5197;48.152;8.590;2023-02-01T09:47:54;3.80;18.20
10304;DHT22;5197;48.152;8.590;2023-02-01T09:50:30;3.70;19.20
10304;DHT22;5197;48.152;8.590;2023-02-01T09:53:35;3.80;19.70
10304;DHT22;5197;48.152;8.590;2023-02-01T09:58:46;3.90;20.00
10304;DHT22;5197;48.152;8.590;2023-02-01T10:01:21;3.90;19.10
10304;DHT22;5197;48.152;8.590;2023-02-01T10:04:03;4.00;19.80
10304;DHT22;5197;48.152;8.590;2023-02-01T10:18:09;4.20;17.80
10304;DHT22;5197;48.152;8.590;2023-02-01T10:24:08;4.20;18.80
10304;DHT22;5197;48.152;8.590;2023-02-01T10:26:54;4.20;19.10
10304;DHT22;5197;48.152;8.590;2023-02-01T10:29:26;4.20;18.90
10304;DHT22;5197;48.152;8.590;2023-02-01T10:31:57;4.30;19.00
10304;DHT22;5197;48.152;8.590;2023-02-01T10:34:31;4.20;17.90
10304;DHT22;5197;48.152;8.590;2023-02-01T10:37:13;4.20;18.50
10304;DHT22;5197;48.152;8.590;2023-02-01T10:39:49;4.30;19.10
10304;DHT22;5197;48.152;8.590;2023-02-01T10:42:23;4.20;19.20
10304;DHT22;5197;48.152;8.590;2023-02-01T10:44:51;4.30;19.30
10304;DHT22;5197;48.152;8.590;2023-02-01T10:47:19;4.20;19.40
10304;DHT22;5197;48.152;8.590;2023-02-01T10:50:10;4.30;18.90
10304;DHT22;5197;48.152;8.590;2023-02-01T10:52:50;4.30;17.90
10304;DHT22;5197;48.152;8.590;2023-02-01T10:55:41;4.20;20.40
10304;DHT22;5197;48.152;8.590;2023-02-01T11:00:52;4.10;20.00
10304;DHT22;5197;48.152;8.590;2023-02-01T11:06:27;4.00;20.20
10304;DHT22;5197;48.152;8.590;2023-02-01T11:16:58;4.00;19.10
10304;DHT22;5197;48.152;8.590;2023-02-01T11:19:27;4.10;19.50
10304;DHT22;5197;48.152;8.590;2023-02-01T11:21:56;4.30;20.30
10304;DHT22;5197;48.152;8.590;2023-02-01T11:24:32;4.30;19.60
10304;DHT22;5197;48.152;8.590;2023-02-01T11:27:01;4.30;17.90
10304;DHT22;5197;48.152;8.590;2023-02-01T11:29:43;4.20;17.80
10304;DHT22;5197;48.152;8.590;2023-02-01T11:32:13;4.20;18.20
10304;DHT22;5197;48.152;8.590;2023-02-01T11:34:46;4.20;19.00
10304;DHT22;5197;48.152;8.590;2023-02-01T11:37:26;4.10;19.30
10304;DHT22;5197;48.152;8.590;2023-02-01T11:39:57;4.00;19.70
10304;DHT22;5197;48.152;8.590;2023-02-01T11:42:24;4.00;20.00
10304;DHT22;5197;48.152;8.590;2023-02-01T11:45:15;4.00;19.50
10304;DHT22;5197;48.152;8.590;2023-02-01T11:47:43;4.00;19.50
10304;DHT22;5197;48.152;8.590;2023-02-01T11:50:16;3.90;20.70
10304;DHT22;5197;48.152;8.590;2023-02-01T12:01:47;3.50;24.10
10304;DHT22;5197;48.152;8.590;2023-02-01T12:06:51;3.40;25.90
10304;DHT22;5197;48.152;8.590;2023-02-01T12:09:54;3.30;26.30
10304;DHT22;5197;48.152;8.590;2023-02-01T12:12:35;3.40;25.90
10304;DHT22;5197;48.152;8.590;2023-02-01T12:17:42;3.30;25.70
10304;DHT22;5197;48.152;8.590;2023-02-01T12:23:17;3.40;25.00
10304;DHT22;5197;48.152;8.590;2023-02-01T12:25:59;3.40;24.40
10304;DHT22;5197;48.152;8.590;2023-02-01T12:31:24;3.40;23.40
10304;DHT22;5197;48.152;8.590;2023-02-01T12:42:46;3.80;21.20
10304;DHT22;5197;48.152;8.590;2023-02-01T12:45:31;3.90;20.90
10304;DHT22;5197;48.152;8.590;2023-02-01T12:50:43;4.00;19.50
10304;DHT22;5197;48.152;8.590;2023-02-01T12:53:25;4.10;19.40
10304;DHT22;5197;48.152;8.590;2023-02-01T12:55:56;4.10;18.70
10304;DHT22;5197;48.152;8.590;2023-02-01T12:58:29;4.10;18.50
10304;DHT22;5197;48.152;8.590;2023-02-01T13:01:21;4.10;18.50
10304;DHT22;5197;48.152;8.590;2023-02-01T13:04:04;4.20;17.80
10304;DHT22;5197;48.152;8.590;2023-02-01T13:06:41;4.30;17.90
10304;DHT22;5197;48.152;8.590;2023-02-01T13:09:26;4.30;17.90
10304;DHT22;5197;48.152;8.590;2023-02-01T13:11:59;4.30;18.00
10304;DHT22;5197;48.152;8.590;2023-02-01T13:14:29;4.20;17.80
10304;DHT22;5197;48.152;8.590;2023-02-01T13:17:26;4.30;17.90
10304;DHT22;5197;48.152;8.590;2023-02-01T13:20:10;4.30;17.90
10304;DHT22;5197;48.152;8.590;2023-02-01T13:22:50;4.40;18.00
10304;DHT22;5197;48.152;8.590;2023-02-01T13:27:55;4.40;15.20
10304;DHT22;5197;48.152;8.590;2023-02-01T13:33:35;4.40;15.00
10304;DHT22;5197;48.152;8.590;2023-02-01T13:39:24;4.40;14.90
10304;DHT22;5197;48.152;8.590;2023-02-01T13:41:59;4.40;15.10
10304;DHT22;5197;48.152;8.590;2023-02-01T13:47:31;4.30;12.80
10304;DHT22;5197;48.152;8.590;2023-02-01T13:52:45;4.30;14.20
10304;DHT22;5197;48.152;8.590;2023-02-01T13:57:50;4.20;12.50
10304;DHT22;5197;48.152;8.590;2023-02-01T14:00:36;4.30;13.50
10304;DHT22;5197;48.152;8.590;2023-02-01T14:03:17;4.30;13.50
10304;DHT22;5197;48.152;8.590;2023-02-01T14:08:20;4.30;13.70
10304;DHT22;5197;48.152;8.590;2023-02-01T14:10:52;4.30;13.40
10304;DHT22;5197;48.152;8.590;2023-02-01T14:21:30;4.40;13.10
10304;DHT22;5197;48.152;8.590;2023-02-01T14:42:55;4.20;12.70
10304;DHT22;5197;48.152;8.590;2023-02-01T14:50:34;4.30;12.80
10304;DHT22;5197;48.152;8.590;2023-02-01T14:56:00;4.30;12.30
10304;DHT22;5197;48.152;8.590;2023-02-01T15:06:38;4.30;12.20
10304;DHT22;5197;48.152;8.590;2023-02-01T15:09:24;4.40;10.50
10304;DHT22;5197;48.152;8.590;2023-02-01T15:12:05;4.30;11.60
10304;DHT22;5197;48.152;8.590;2023-02-01T15:14:44;4.20;11.40
10304;DHT22;5197;48.152;8.590;2023-02-01T15:17:28;4.30;11.80
10304;DHT22;5197;48.152;8.590;2023-02-01T15:20:16;4.30;11.30
10304;DHT22;5197;48.152;8.590;2023-02-01T15:23:00;4.30;11.70
10304;DHT22;5197;48.152;8.590;2023-02-01T15:25:33;4.20;10.90
10304;DHT22;5197;48.152;8.590;2023-02-01T15:28:03;4.20;11.20
10304;DHT22;5197;48.152;8.590;2023-02-01T15:30:33;4.10;11.10
10304;DHT22;5197;48.152;8.590;2023-02-01T15:33:15;4.10;11.60
10304;DHT22;5197;48.152;8.590;2023-02-01T15:36:09;4.20;11.70
10304;DHT22;5197;48.152;8.590;2023-02-01T15:38:43;4.20;11.70
10304;DHT22;5197;48.152;8.590;2023-02-01T15:41:16;4.10;10.90
10304;DHT22;5197;48.152;8.590;2023-02-01T15:44:04;4.10;11.40
10304;DHT22;5197;48.152;8.590;2023-02-01T15:46:36;4.10;11.40
10304;DHT22;5197;48.152;8.590;2023-02-01T15:49:03;4.10;11.80
10304;DHT22;5197;48.152;8.590;2023-02-01T15:51:31;4.10;11.70
10304;DHT22;5197;48.152;8.590;2023-02-01T15:54:07;4.00;11.40
10304;DHT22;5197;48.152;8.590;2023-02-01T15:56:39;4.10;11.80
10304;DHT22;5197;48.152;8.590;2023-02-01T15:59:19;4.00;12.80
10304;DHT22;5197;48.152;8.590;2023-02-01T16:01:47;4.00;11.30
10304;DHT22;5197;48.152;8.590;2023-02-01T16:04:21;4.00;12.00
10304;DHT22;5197;48.152;8.590;2023-02-01T16:06:54;3.90;12.00
10304;DHT22;5197;48.152;8.590;2023-02-01T16:09:24;4.00;12.00
10304;DHT22;5197;48.152;8.590;2023-02-01T16:11:57;4.00;11.80
10304;DHT22;5197;48.152;8.590;2023-02-01T16:14:25;3.90;12.10
10304;DHT22;5197;48.152;8.590;2023-02-01T16:16:55;3.90;12.30
10304;DHT22;5197;48.152;8.590;2023-02-01T16:19:23;4.00;12.50
10304;DHT22;5197;48.152;8.590;2023-02-01T16:21:55;3.90;12.90
10304;DHT22;5197;48.152;8.590;2023-02-01T16:24:22;3.80;12.50
10304;DHT22;5197;48.152;8.590;2023-02-01T16:26:52;3.80;12.40
10304;DHT22;5197;48.152;8.590;2023-02-01T16:29:20;3.80;12.50
10304;DHT22;5197;48.152;8.590;2023-02-01T16:31:49;3.80;12.80
10304;DHT22;5197;48.152;8.590;2023-02-01T16:34:17;3.80;12.50
10304;DHT22;5197;48.152;8.590;2023-02-01T16:36:47;3.80;12.90
10304;DHT22;5197;48.152;8.590;2023-02-01T16:39:19;3.80;12.90
10304;DHT22;5197;48.152;8.590;2023-02-01T16:41:46;3.80;13.20
10304;DHT22;5197;48.152;8.590;2023-02-01T16:44:15;3.70;13.10
10304;DHT22;5197;48.152;8.590;2023-02-01T16:46:44;3.70;13.20
10304;DHT22;5197;48.152;8.590;2023-02-01T16:49:25;3.70;13.10
10304;DHT22;5197;48.152;8.590;2023-02-01T16:51:56;3.80;13.00
10304;DHT22;5197;48.152;8.590;2023-02-01T16:54:24;3.70;13.00
10304;DHT22;5197;48.152;8.590;2023-02-01T16:56:51;3.70;13.20
10304;DHT22;5197;48.152;8.590;2023-02-01T16:59:18;3.60;13.30
10304;DHT22;5197;48.152;8.590;2023-02-01T17:01:45;3.60;13.50
10304;DHT22;5197;48.152;8.590;2023-02-01T17:04:12;3.60;13.50
10304;DHT22;5197;48.152;8.590;2023-02-01T17:06:38;3.60;13.50
10304;DHT22;5197;48.152;8.590;2023-02-01T17:09:06;3.70;13.40
10304;DHT22;5197;48.152;8.590;2023-02-01T17:11:33;3.60;13.70
10304;DHT22;5197;48.152;8.590;2023-02-01T17:14:11;3.70;13.70
10304;DHT22;5197;48.152;8.590;2023-02-01T17:16:41;3.70;13.40
10304;DHT22;5197;48.152;8.590;2023-02-01T17:19:16;3.60;13.40
10304;DHT22;5197;48.152;8.590;2023-02-01T17:21:50;3.70;13.60
10304;DHT22;5197;48.152;8.590;2023-02-01T17:24:20;3.70;13.50
10304;DHT22;5197;48.152;8.590;2023-02-01T17:26:47;3.70;13.60
10304;DHT22;5197;48.152;8.590;2023-02-01T17:29:18;3.60;13.40
10304;DHT22;5197;48.152;8.590;2023-02-01T17:31:53;3.70;13.50
10304;DHT22;5197;48.152;8.590;2023-02-01T17:34:21;3.60;13.50
10304;DHT22;5197;48.152;8.590;2023-02-01T17:36:48;3.60;13.70
10304;DHT22;5197;48.152;8.590;2023-02-01T17:39:16;3.60;14.00
10304;DHT22;5197;48.152;8.590;2023-02-01T17:42:03;3.40;13.70
10304;DHT22;5197;48.152;8.590;2023-02-01T17:44:30;3.70;13.70
10304;DHT22;5197;48.152;8.590;2023-02-01T17:46:58;3.70;13.70
10304;DHT22;5197;48.152;8.590;2023-02-01T17:49:26;3.60;13.80
10304;DHT22;5197;48.152;8.590;2023-02-01T17:51:56;3.60;13.90
10304;DHT22;5197;48.152;8.590;2023-02-01T17:54:23;3.60;13.80
10304;DHT22;5197;48.152;8.590;2023-02-01T17:56:52;3.60;14.00
10304;DHT22;5197;48.152;8.590;2023-02-01T17:59:20;3.60;14.00
10304;DHT22;5197;48.152;8.590;2023-02-01T18:01:48;3.60;14.00
10304;DHT22;5197;48.152;8.590;2023-02-01T18:04:17;3.70;14.10
10304;DHT22;5197;48.152;8.590;2023-02-01T18:06:44;3.60;14.10
10304;DHT22;5197;48.152;8.590;2023-02-01T18:09:11;3.60;14.20
10304;DHT22;5197;48.152;8.590;2023-02-01T18:11:38;3.60;14.30
10304;DHT22;5197;48.152;8.590;2023-02-01T18:14:05;3.60;14.40
10304;DHT22;5197;48.152;8.590;2023-02-01T18:16:33;3.60;14.40
10304;DHT22;5197;48.152;8.590;2023-02-01T18:19:00;3.60;14.30
10304;DHT22;5197;48.152;8.590;2023-02-01T18:21:33;3.60;14.40
10304;DHT22;5197;48.152;8.590;2023-02-01T18:24:00;3.60;14.20
10304;DHT22;5197;48.152;8.590;2023-02-01T18:26:27;3.60;15.50
10304;DHT22;5197;48.152;8.590;2023-02-01T18:28:54;3.50;14.30
10304;DHT22;5197;48.152;8.590;2023-02-01T18:31:24;3.60;14.40
10304;DHT22;5197;48.152;8.590;2023-02-01T18:33:53;3.50;14.30
10304;DHT22;5197;48.152;8.590;2023-02-01T18:36:21;3.60;14.60
10304;DHT22;5197;48.152;8.590;2023-02-01T18:38:48;3.60;14.50
10304;DHT22;5197;48.152;8.590;2023-02-01T18:41:18;5.90;15.90
10304;DHT22;5197;48.152;8.590;2023-02-01T18:43:50;3.60;15.60
10304;DHT22;5197;48.152;8.590;2023-02-01T18:46:17;3.60;14.70
10304;DHT22;5197;48.152;8.590;2023-02-01T18:48:46;3.50;14.70
10304;DHT22;5197;48.152;8.590;2023-02-01T18:51:16;3.60;14.90
10304;DHT22;5197;48.152;8.590;2023-02-01T18:53:46;3.60;15.00
10304;DHT22;5197;48.152;8.590;2023-02-01T18:56:14;3.50;15.00
10304;DHT22;5197;48.152;8.590;2023-02-01T18:58:43;3.60;15.30
10304;DHT22;5197;48.152;8.590;2023-02-01T19:01:15;3.60;15.30
10304;DHT22;5197;48.152;8.590;2023-02-01T19:03:46;3.60;15.20
10304;DHT22;5197;48.152;8.590;2023-02-01T19:06:24;3.50;14.90
10304;DHT22;5197;48.152;8.590;2023-02-01T19:08:51;3.50;15.00